sensor_id;sensor_type;location;lat;lon;timestamp;temperature;humidity
40534;DHT22;26233;51.894;10.192;2022-08-19T00:01:17;23.00;53.40
40534;DHT22;26233;51.894;10.192;2022-08-19T00:03:44;23.00;53.40
40534;DHT22;26233;51.894;10.192;2022-08-19T00:06:11;23.00;53.50
40534;DHT22;26233;51.894;10.192;2022-08-19T00:08:39;22.90;53.40
40534;DHT22;26233;51.894;10.192;2022-08-19T00:11:07;23.00;53.60
40534;DHT22;26233;51.894;10.192;2022-08-19T00:13:34;22.90;53.50
40534;DHT22;26233;51.894;10.192;2022-08-19T00:16:03;22.90;53.50
40534;DHT22;26233;51.894;10.192;2022-08-19T00:18:33;22.90;53.60
40534;DHT22;26233;51.894;10.192;2022-08-19T00:21:00;22.90;53.60
40534;DHT22;26233;51.894;10.192;2022-08-19T00:23:28;22.90;53.60
40534;DHT22;26233;51.894;10.192;2022-08-19T00:25:55;22.90;53.60
40534;DHT22;26233;51.894;10.192;2022-08-19T00:28:22;22.90;53.50
40534;DHT22;26233;51.894;10.192;2022-08-19T00:30:51;22.90;53.60
40534;DHT22;26233;51.894;10.192;2022-08-19T00:33:19;22.90;53.60
40534;DHT22;26233;51.894;10.192;2022-08-19T00:35:48;22.90;53.60
40534;DHT22;26233;51.894;10.192;2022-08-19T00:38:15;22.90;53.70
40534;DHT22;26233;51.894;10.192;2022-08-19T00:40:42;22.90;53.70
40534;DHT22;26233;51.894;10.192;2022-08-19T00:43:13;22.90;53.70
40534;DHT22;26233;51.894;10.192;2022-08-19T00:45:45;22.90;53.70
40534;DHT22;26233;51.894;10.192;2022-08-19T00:48:13;22.90;53.60
40534;DHT22;26233;51.894;10.192;2022-08-19T00:50:42;22.70;53.40
40534;DHT22;26233;51.894;10.192;2022-08-19T00:53:13;22.90;53.50
40534;DHT22;26233;51.894;10.192;2022-08-19T00:55:44;22.90;53.50
40534;DHT22;26233;51.894;10.192;2022-08-19T00:58:17;22.90;53.50
40534;DHT22;26233;51.894;10.192;2022-08-19T01:00:46;22.90;53.40
40534;DHT22;26233;51.894;10.192;2022-08-19T01:03:17;22.90;53.40
40534;DHT22;26233;51.894;10.192;2022-08-19T01:05:47;22.90;53.40
40534;DHT22;26233;51.894;10.192;2022-08-19T01:08:18;22.90;53.30
40534;DHT22;26233;51.894;10.192;2022-08-19T01:10:48;22.90;53.40
40534;DHT22;26233;51.894;10.192;2022-08-19T01:13:20;22.90;53.40
40534;DHT22;26233;51.894;10.192;2022-08-19T01:15:50;22.80;53.30
40534;DHT22;26233;51.894;10.192;2022-08-19T01:18:20;22.80;53.30
40534;DHT22;26233;51.894;10.192;2022-08-19T01:20:48;22.80;53.20
40534;DHT22;26233;51.894;10.192;2022-08-19T01:23:19;22.80;53.20
40534;DHT22;26233;51.894;10.192;2022-08-19T01:25:50;22.80;53.80
40534;DHT22;26233;51.894;10.192;2022-08-19T01:28:20;22.80;53.20
40534;DHT22;26233;51.894;10.192;2022-08-19T01:30:48;22.70;53.10
40534;DHT22;26233;51.894;10.192;2022-08-19T01:33:15;22.70;53.10
40534;DHT22;26233;51.894;10.192;2022-08-19T01:35:43;22.70;53.00
40534;DHT22;26233;51.894;10.192;2022-08-19T01:38:21;22.60;53.00
40534;DHT22;26233;51.894;10.192;2022-08-19T01:40:50;22.60;53.20
40534;DHT22;26233;51.894;10.192;2022-08-19T01:43:18;22.60;53.20
40534;DHT22;26233;51.894;10.192;2022-08-19T01:45:46;22.50;53.20
40534;DHT22;26233;51.894;10.192;2022-08-19T01:48:13;22.50;53.20
40534;DHT22;26233;51.894;10.192;2022-08-19T01:50:41;22.50;53.30
40534;DHT22;26233;51.894;10.192;2022-08-19T01:53:11;22.50;53.40
40534;DHT22;26233;51.894;10.192;2022-08-19T01:55:42;22.50;53.40
40534;DHT22;26233;51.894;10.192;2022-08-19T01:58:13;22.50;53.50
40534;DHT22;26233;51.894;10.192;2022-08-19T02:00:43;22.50;53.50
40534;DHT22;26233;51.894;10.192;2022-08-19T02:03:11;22.50;53.40
40534;DHT22;26233;51.894;10.192;2022-08-19T02:05:38;22.50;53.40
40534;DHT22;26233;51.894;10.192;2022-08-19T02:08:07;22.50;53.40
40534;DHT22;26233;51.894;10.192;2022-08-19T02:10:40;22.40;53.20
40534;DHT22;26233;51.894;10.192;2022-08-19T02:13:09;22.50;53.40
40534;DHT22;26233;51.894;10.192;2022-08-19T02:15:38;22.40;53.30
40534;DHT22;26233;51.894;10.192;2022-08-19T02:18:05;22.40;53.40
40534;DHT22;26233;51.894;10.192;2022-08-19T02:20:34;22.40;53.50
40534;DHT22;26233;51.894;10.192;2022-08-19T02:23:02;22.40;53.50
40534;DHT22;26233;51.894;10.192;2022-08-19T02:25:29;22.40;53.60
40534;DHT22;26233;51.894;10.192;2022-08-19T02:27:58;22.40;53.60
40534;DHT22;26233;51.894;10.192;2022-08-19T02:30:25;22.40;53.60
40534;DHT22;26233;51.894;10.192;2022-08-19T02:32:53;22.40;53.70
40534;DHT22;26233;51.894;10.192;2022-08-19T02:35:21;22.40;53.60
40534;DHT22;26233;51.894;10.192;2022-08-19T02:37:48;22.30;53.60
40534;DHT22;26233;51.894;10.192;2022-08-19T02:40:36;22.40;53.60
40534;DHT22;26233;51.894;10.192;2022-08-19T02:43:06;22.40;53.60
40534;DHT22;26233;51.894;10.192;2022-08-19T02:45:35;22.30;53.50
40534;DHT22;26233;51.894;10.192;2022-08-19T02:48:03;22.30;53.50
40534;DHT22;26233;51.894;10.192;2022-08-19T02:50:31;22.30;53.40
40534;DHT22;26233;51.894;10.192;2022-08-19T02:52:58;22.30;53.40
40534;DHT22;26233;51.894;10.192;2022-08-19T02:55:25;22.20;53.30
40534;DHT22;26233;51.894;10.192;2022-08-19T02:57:55;22.20;53.40
40534;DHT22;26233;51.894;10.192;2022-08-19T03:00:24;22.20;54.10
40534;DHT22;26233;51.894;10.192;2022-08-19T03:02:51;22.10;53.40
40534;DHT22;26233;51.894;10.192;2022-08-19T03:05:18;22.10;53.30
40534;DHT22;26233;51.894;10.192;2022-08-19T03:07:46;22.10;53.40
40534;DHT22;26233;51.894;10.192;2022-08-19T03:10:13;22.10;53.30
40534;DHT22;26233;51.894;10.192;2022-08-19T03:12:40;22.10;54.00
40534;DHT22;26233;51.894;10.192;2022-08-19T03:15:08;22.00;53.30
40534;DHT22;26233;51.894;10.192;2022-08-19T03:17:37;22.00;53.40
40534;DHT22;26233;51.894;10.192;2022-08-19T03:20:05;22.00;53.40
40534;DHT22;26233;51.894;10.192;2022-08-19T03:22:32;22.00;53.50
40534;DHT22;26233;51.894;10.192;2022-08-19T03:24:59;22.00;53.40
40534;DHT22;26233;51.894;10.192;2022-08-19T03:27:26;22.00;53.40
40534;DHT22;26233;51.894;10.192;2022-08-19T03:29:55;22.00;53.40
40534;DHT22;26233;51.894;10.192;2022-08-19T03:32:24;21.90;53.40
40534;DHT22;26233;51.894;10.192;2022-08-19T03:34:53;22.00;53.50
40534;DHT22;26233;51.894;10.192;2022-08-19T03:37:20;21.90;53.40
40534;DHT22;26233;51.894;10.192;2022-08-19T03:39:47;22.00;53.40
40534;DHT22;26233;51.894;10.192;2022-08-19T03:42:15;21.90;53.40
40534;DHT22;26233;51.894;10.192;2022-08-19T03:44:45;21.90;53.30
40534;DHT22;26233;51.894;10.192;2022-08-19T03:47:12;21.90;53.30
40534;DHT22;26233;51.894;10.192;2022-08-19T03:49:42;21.90;53.30
40534;DHT22;26233;51.894;10.192;2022-08-19T03:52:10;21.80;53.90
40534;DHT22;26233;51.894;10.192;2022-08-19T03:54:38;21.90;53.50
40534;DHT22;26233;51.894;10.192;2022-08-19T03:57:06;21.90;53.40
40534;DHT22;26233;51.894;10.192;2022-08-19T03:59:35;21.90;53.40
40534;DHT22;26233;51.894;10.192;2022-08-19T04:02:08;21.90;53.50
40534;DHT22;26233;51.894;10.192;2022-08-19T04:04:36;21.80;53.40
40534;DHT22;26233;51.894;10.192;2022-08-19T04:07:05;21.80;53.30
40534;DHT22;26233;51.894;10.192;2022-08-19T04:09:35;21.80;53.30
40534;DHT22;26233;51.894;10.192;2022-08-19T04:12:03;21.80;53.40
40534;DHT22;26233;51.894;10.192;2022-08-19T04:14:32;21.80;53.40
40534;DHT22;26233;51.894;10.192;2022-08-19T04:17:00;21.80;53.30
40534;DHT22;26233;51.894;10.192;2022-08-19T04:19:30;21.80;53.30
40534;DHT22;26233;51.894;10.192;2022-08-19T04:21:58;21.80;53.30
40534;DHT22;26233;51.894;10.192;2022-08-19T04:24:25;21.80;53.20
40534;DHT22;26233;51.894;10.192;2022-08-19T04:26:54;21.70;53.00
40534;DHT22;26233;51.894;10.192;2022-08-19T04:29:23;21.70;53.00
40534;DHT22;26233;51.894;10.192;2022-08-19T04:31:56;21.70;53.00
40534;DHT22;26233;51.894;10.192;2022-08-19T04:34:26;21.60;53.00
40534;DHT22;26233;51.894;10.192;2022-08-19T04:36:56;21.60;53.00
40534;DHT22;26233;51.894;10.192;2022-08-19T04:39:27;21.60;53.70
40534;DHT22;26233;51.894;10.192;2022-08-19T04:42:11;21.60;53.10
40534;DHT22;26233;51.894;10.192;2022-08-19T04:44:58;21.50;53.00
40534;DHT22;26233;51.894;10.192;2022-08-19T04:47:26;21.60;53.20
40534;DHT22;26233;51.894;10.192;2022-08-19T04:49:53;21.60;53.10
40534;DHT22;26233;51.894;10.192;2022-08-19T04:52:20;21.60;53.10
40534;DHT22;26233;51.894;10.192;2022-08-19T04:54:47;21.60;53.10
40534;DHT22;26233;51.894;10.192;2022-08-19T04:57:16;21.60;52.90
40534;DHT22;26233;51.894;10.192;2022-08-19T04:59:43;21.60;52.90
40534;DHT22;26233;51.894;10.192;2022-08-19T05:02:10;21.60;52.80
40534;DHT22;26233;51.894;10.192;2022-08-19T05:04:39;21.50;53.30
40534;DHT22;26233;51.894;10.192;2022-08-19T05:07:07;21.50;52.70
40534;DHT22;26233;51.894;10.192;2022-08-19T05:09:35;21.50;52.70
40534;DHT22;26233;51.894;10.192;2022-08-19T05:12:03;21.40;52.70
40534;DHT22;26233;51.894;10.192;2022-08-19T05:14:32;21.40;52.80
40534;DHT22;26233;51.894;10.192;2022-08-19T05:17:02;21.40;53.50
40534;DHT22;26233;51.894;10.192;2022-08-19T05:19:29;21.40;52.90
40534;DHT22;26233;51.894;10.192;2022-08-19T05:22:14;21.40;52.90
40534;DHT22;26233;51.894;10.192;2022-08-19T05:25:05;21.30;52.80
40534;DHT22;26233;51.894;10.192;2022-08-19T05:27:33;21.30;53.00
40534;DHT22;26233;51.894;10.192;2022-08-19T05:30:03;21.30;53.10
40534;DHT22;26233;51.894;10.192;2022-08-19T05:32:31;21.30;53.10
40534;DHT22;26233;51.894;10.192;2022-08-19T05:34:59;21.40;53.30
40534;DHT22;26233;51.894;10.192;2022-08-19T05:37:26;21.40;53.30
40534;DHT22;26233;51.894;10.192;2022-08-19T05:39:54;21.40;53.30
40534;DHT22;26233;51.894;10.192;2022-08-19T05:42:21;21.40;53.30
40534;DHT22;26233;51.894;10.192;2022-08-19T05:44:49;21.50;53.30
40534;DHT22;26233;51.894;10.192;2022-08-19T05:47:18;21.50;53.30
40534;DHT22;26233;51.894;10.192;2022-08-19T05:49:46;21.50;53.30
40534;DHT22;26233;51.894;10.192;2022-08-19T05:52:15;21.50;53.30
40534;DHT22;26233;51.894;10.192;2022-08-19T05:54:42;21.50;53.20
40534;DHT22;26233;51.894;10.192;2022-08-19T05:57:10;21.60;53.30
40534;DHT22;26233;51.894;10.192;2022-08-19T05:59:37;21.60;53.20
40534;DHT22;26233;51.894;10.192;2022-08-19T06:02:06;21.60;53.20
40534;DHT22;26233;51.894;10.192;2022-08-19T06:04:34;21.60;53.10
40534;DHT22;26233;51.894;10.192;2022-08-19T06:07:02;21.50;53.00
40534;DHT22;26233;51.894;10.192;2022-08-19T06:09:34;21.50;53.00
40534;DHT22;26233;51.894;10.192;2022-08-19T06:12:03;21.50;53.10
40534;DHT22;26233;51.894;10.192;2022-08-19T06:14:33;21.50;53.10
40534;DHT22;26233;51.894;10.192;2022-08-19T06:17:02;21.50;53.10
40534;DHT22;26233;51.894;10.192;2022-08-19T06:19:30;21.60;53.30
40534;DHT22;26233;51.894;10.192;2022-08-19T06:21:59;21.60;53.30
40534;DHT22;26233;51.894;10.192;2022-08-19T06:24:29;21.60;53.20
40534;DHT22;26233;51.894;10.192;2022-08-19T06:26:58;21.60;53.10
40534;DHT22;26233;51.894;10.192;2022-08-19T06:29:29;21.60;53.00
40534;DHT22;26233;51.894;10.192;2022-08-19T06:31:58;21.60;53.00
40534;DHT22;26233;51.894;10.192;2022-08-19T06:34:28;21.60;53.10
40534;DHT22;26233;51.894;10.192;2022-08-19T06:36:59;21.60;53.10
40534;DHT22;26233;51.894;10.192;2022-08-19T06:39:30;21.60;53.10
40534;DHT22;26233;51.894;10.192;2022-08-19T06:42:02;21.60;53.10
40534;DHT22;26233;51.894;10.192;2022-08-19T06:44:34;21.60;53.20
40534;DHT22;26233;51.894;10.192;2022-08-19T06:47:03;21.70;53.30
40534;DHT22;26233;51.894;10.192;2022-08-19T06:49:32;21.70;53.30
40534;DHT22;26233;51.894;10.192;2022-08-19T06:52:01;21.80;53.30
40534;DHT22;26233;51.894;10.192;2022-08-19T06:54:29;21.80;53.20
40534;DHT22;26233;51.894;10.192;2022-08-19T06:56:57;21.90;53.20
40534;DHT22;26233;51.894;10.192;2022-08-19T06:59:27;21.90;53.20
40534;DHT22;26233;51.894;10.192;2022-08-19T07:01:59;21.90;53.20
40534;DHT22;26233;51.894;10.192;2022-08-19T07:04:29;21.90;53.20
40534;DHT22;26233;51.894;10.192;2022-08-19T07:06:58;21.90;53.00
40534;DHT22;26233;51.894;10.192;2022-08-19T07:09:28;22.00;53.00
40534;DHT22;26233;51.894;10.192;2022-08-19T07:11:56;22.00;52.70
40534;DHT22;26233;51.894;10.192;2022-08-19T07:14:26;21.90;52.50
40534;DHT22;26233;51.894;10.192;2022-08-19T07:16:55;21.90;52.60
40534;DHT22;26233;51.894;10.192;2022-08-19T07:19:25;21.90;52.70
40534;DHT22;26233;51.894;10.192;2022-08-19T07:21:54;21.90;52.70
40534;DHT22;26233;51.894;10.192;2022-08-19T07:24:24;22.00;52.80
40534;DHT22;26233;51.894;10.192;2022-08-19T07:26:54;22.00;52.70
40534;DHT22;26233;51.894;10.192;2022-08-19T07:29:23;22.00;52.70
40534;DHT22;26233;51.894;10.192;2022-08-19T07:31:50;22.00;52.60
40534;DHT22;26233;51.894;10.192;2022-08-19T07:34:18;22.00;52.60
40534;DHT22;26233;51.894;10.192;2022-08-19T07:36:45;22.10;52.70
40534;DHT22;26233;51.894;10.192;2022-08-19T07:39:15;22.10;52.60
40534;DHT22;26233;51.894;10.192;2022-08-19T07:41:46;22.00;52.40
40534;DHT22;26233;51.894;10.192;2022-08-19T07:44:14;22.10;52.30
40534;DHT22;26233;51.894;10.192;2022-08-19T07:46:48;22.10;52.40
40534;DHT22;26233;51.894;10.192;2022-08-19T07:49:17;22.10;52.50
40534;DHT22;26233;51.894;10.192;2022-08-19T07:51:46;22.10;52.30
40534;DHT22;26233;51.894;10.192;2022-08-19T07:54:15;22.10;52.20
40534;DHT22;26233;51.894;10.192;2022-08-19T07:56:42;22.10;52.20
40534;DHT22;26233;51.894;10.192;2022-08-19T07:59:11;22.10;52.10
40534;DHT22;26233;51.894;10.192;2022-08-19T08:01:39;22.10;52.10
40534;DHT22;26233;51.894;10.192;2022-08-19T08:04:07;22.10;51.90
40534;DHT22;26233;51.894;10.192;2022-08-19T08:06:52;22.10;51.90
40534;DHT22;26233;51.894;10.192;2022-08-19T08:09:39;22.10;51.90
40534;DHT22;26233;51.894;10.192;2022-08-19T08:12:12;22.00;51.80
40534;DHT22;26233;51.894;10.192;2022-08-19T08:14:43;22.00;51.80
40534;DHT22;26233;51.894;10.192;2022-08-19T08:17:12;22.10;51.90
40534;DHT22;26233;51.894;10.192;2022-08-19T08:19:40;22.10;51.90
40534;DHT22;26233;51.894;10.192;2022-08-19T08:22:10;22.10;51.80
40534;DHT22;26233;51.894;10.192;2022-08-19T08:25:02;22.10;51.80
40534;DHT22;26233;51.894;10.192;2022-08-19T08:27:34;22.20;52.00
40534;DHT22;26233;51.894;10.192;2022-08-19T08:30:02;22.20;51.80
40534;DHT22;26233;51.894;10.192;2022-08-19T08:32:32;22.20;51.80
40534;DHT22;26233;51.894;10.192;2022-08-19T08:34:59;22.30;51.80
40534;DHT22;26233;51.894;10.192;2022-08-19T08:37:28;22.30;51.90
40534;DHT22;26233;51.894;10.192;2022-08-19T08:39:55;22.30;51.70
40534;DHT22;26233;51.894;10.192;2022-08-19T08:42:27;22.40;51.70
40534;DHT22;26233;51.894;10.192;2022-08-19T08:45:00;22.40;51.60
40534;DHT22;26233;51.894;10.192;2022-08-19T08:47:35;22.50;51.80
40534;DHT22;26233;51.894;10.192;2022-08-19T08:50:06;22.50;51.80
40534;DHT22;26233;51.894;10.192;2022-08-19T08:52:44;22.60;51.80
40534;DHT22;26233;51.894;10.192;2022-08-19T08:55:15;22.70;51.80
40534;DHT22;26233;51.894;10.192;2022-08-19T08:58:00;22.70;51.80
40534;DHT22;26233;51.894;10.192;2022-08-19T09:00:33;22.80;51.70
40534;DHT22;26233;51.894;10.192;2022-08-19T09:03:02;22.90;51.70
40534;DHT22;26233;51.894;10.192;2022-08-19T09:05:38;23.00;51.70
40534;DHT22;26233;51.894;10.192;2022-08-19T09:08:18;23.00;51.50
40534;DHT22;26233;51.894;10.192;2022-08-19T09:10:52;23.10;51.40
40534;DHT22;26233;51.894;10.192;2022-08-19T09:13:27;23.20;51.70
40534;DHT22;26233;51.894;10.192;2022-08-19T09:16:02;23.30;51.30
40534;DHT22;26233;51.894;10.192;2022-08-19T09:18:40;23.40;51.40
40534;DHT22;26233;51.894;10.192;2022-08-19T09:21:08;23.50;51.00
40534;DHT22;26233;51.894;10.192;2022-08-19T09:23:36;23.50;51.00
40534;DHT22;26233;51.894;10.192;2022-08-19T09:26:07;23.50;50.90
40534;DHT22;26233;51.894;10.192;2022-08-19T09:28:36;23.60;50.80
40534;DHT22;26233;51.894;10.192;2022-08-19T09:31:04;23.60;50.60
40534;DHT22;26233;51.894;10.192;2022-08-19T09:33:31;23.60;50.70
40534;DHT22;26233;51.894;10.192;2022-08-19T09:36:04;23.70;50.80
40534;DHT22;26233;51.894;10.192;2022-08-19T09:38:32;23.80;50.70
40534;DHT22;26233;51.894;10.192;2022-08-19T09:41:04;23.90;50.80
40534;DHT22;26233;51.894;10.192;2022-08-19T09:43:32;23.90;50.60
40534;DHT22;26233;51.894;10.192;2022-08-19T09:46:05;24.00;50.80
40534;DHT22;26233;51.894;10.192;2022-08-19T09:48:35;24.00;50.50
40534;DHT22;26233;51.894;10.192;2022-08-19T09:51:04;24.20;50.50
40534;DHT22;26233;51.894;10.192;2022-08-19T09:53:32;24.20;50.20
40534;DHT22;26233;51.894;10.192;2022-08-19T09:55:59;24.30;49.90
40534;DHT22;26233;51.894;10.192;2022-08-19T09:58:29;24.30;49.70
40534;DHT22;26233;51.894;10.192;2022-08-19T10:00:57;24.40;49.70
40534;DHT22;26233;51.894;10.192;2022-08-19T10:03:28;24.50;50.30
40534;DHT22;26233;51.894;10.192;2022-08-19T10:06:01;24.60;49.30
40534;DHT22;26233;51.894;10.192;2022-08-19T10:08:35;24.60;48.90
40534;DHT22;26233;51.894;10.192;2022-08-19T10:11:03;24.70;49.20
40534;DHT22;26233;51.894;10.192;2022-08-19T10:13:32;24.80;49.10
40534;DHT22;26233;51.894;10.192;2022-08-19T10:16:04;24.90;49.00
40534;DHT22;26233;51.894;10.192;2022-08-19T10:18:38;24.90;48.90
40534;DHT22;26233;51.894;10.192;2022-08-19T10:21:12;25.00;48.90
40534;DHT22;26233;51.894;10.192;2022-08-19T10:23:41;25.10;48.90
40534;DHT22;26233;51.894;10.192;2022-08-19T10:26:12;25.20;49.10
40534;DHT22;26233;51.894;10.192;2022-08-19T10:28:41;25.40;48.90
40534;DHT22;26233;51.894;10.192;2022-08-19T10:31:12;25.60;49.20
40534;DHT22;26233;51.894;10.192;2022-08-19T10:33:42;25.80;49.30
40534;DHT22;26233;51.894;10.192;2022-08-19T10:36:12;26.10;49.00
40534;DHT22;26233;51.894;10.192;2022-08-19T10:38:43;26.40;49.20
40534;DHT22;26233;51.894;10.192;2022-08-19T10:41:13;26.70;49.70
40534;DHT22;26233;51.894;10.192;2022-08-19T10:43:43;27.10;49.70
40534;DHT22;26233;51.894;10.192;2022-08-19T10:46:13;27.50;49.50
40534;DHT22;26233;51.894;10.192;2022-08-19T10:48:43;27.90;49.20
40534;DHT22;26233;51.894;10.192;2022-08-19T10:51:12;28.30;49.10
40534;DHT22;26233;51.894;10.192;2022-08-19T10:53:57;28.80;49.00
40534;DHT22;26233;51.894;10.192;2022-08-19T10:56:24;29.30;48.80
40534;DHT22;26233;51.894;10.192;2022-08-19T10:59:09;29.80;48.10
40534;DHT22;26233;51.894;10.192;2022-08-19T11:01:38;30.20;47.50
40534;DHT22;26233;51.894;10.192;2022-08-19T11:04:08;30.50;46.80
40534;DHT22;26233;51.894;10.192;2022-08-19T11:06:39;30.80;45.70
40534;DHT22;26233;51.894;10.192;2022-08-19T11:09:07;31.20;46.30
40534;DHT22;26233;51.894;10.192;2022-08-19T11:11:35;31.60;46.00
40534;DHT22;26233;51.894;10.192;2022-08-19T11:14:05;32.10;45.40
40534;DHT22;26233;51.894;10.192;2022-08-19T11:16:34;32.50;44.70
40534;DHT22;26233;51.894;10.192;2022-08-19T11:19:06;32.90;43.90
40534;DHT22;26233;51.894;10.192;2022-08-19T11:21:37;33.30;43.50
40534;DHT22;26233;51.894;10.192;2022-08-19T11:24:12;33.60;43.00
40534;DHT22;26233;51.894;10.192;2022-08-19T11:26:42;33.80;42.50
40534;DHT22;26233;51.894;10.192;2022-08-19T11:29:12;34.00;42.10
40534;DHT22;26233;51.894;10.192;2022-08-19T11:31:58;34.20;41.80
40534;DHT22;26233;51.894;10.192;2022-08-19T11:34:28;34.40;41.90
40534;DHT22;26233;51.894;10.192;2022-08-19T11:36:56;34.60;41.40
40534;DHT22;26233;51.894;10.192;2022-08-19T11:39:26;34.70;40.80
40534;DHT22;26233;51.894;10.192;2022-08-19T11:41:57;34.80;40.00
40534;DHT22;26233;51.894;10.192;2022-08-19T11:44:25;34.80;39.00
40534;DHT22;26233;51.894;10.192;2022-08-19T11:46:53;34.80;38.80
40534;DHT22;26233;51.894;10.192;2022-08-19T11:49:20;34.80;38.50
40534;DHT22;26233;51.894;10.192;2022-08-19T11:51:49;34.90;38.60
40534;DHT22;26233;51.894;10.192;2022-08-19T11:54:17;34.90;37.80
40534;DHT22;26233;51.894;10.192;2022-08-19T11:56:44;35.00;37.50
40534;DHT22;26233;51.894;10.192;2022-08-19T11:59:14;35.00;37.00
40534;DHT22;26233;51.894;10.192;2022-08-19T12:01:43;35.00;36.80
40534;DHT22;26233;51.894;10.192;2022-08-19T12:04:12;35.00;36.60
40534;DHT22;26233;51.894;10.192;2022-08-19T12:07:05;35.00;36.30
40534;DHT22;26233;51.894;10.192;2022-08-19T12:09:58;34.90;36.00
40534;DHT22;26233;51.894;10.192;2022-08-19T12:12:51;34.90;35.80
40534;DHT22;26233;51.894;10.192;2022-08-19T12:15:47;34.80;35.50
40534;DHT22;26233;51.894;10.192;2022-08-19T12:18:41;34.70;35.50
40534;DHT22;26233;51.894;10.192;2022-08-19T12:21:36;34.60;34.80
40534;DHT22;26233;51.894;10.192;2022-08-19T12:24:34;34.50;34.80
40534;DHT22;26233;51.894;10.192;2022-08-19T12:27:26;34.40;34.10
40534;DHT22;26233;51.894;10.192;2022-08-19T12:30:19;34.30;34.40
40534;DHT22;26233;51.894;10.192;2022-08-19T12:33:12;34.20;34.20
40534;DHT22;26233;51.894;10.192;2022-08-19T12:36:07;34.10;34.10
40534;DHT22;26233;51.894;10.192;2022-08-19T12:39:02;34.00;33.70
40534;DHT22;26233;51.894;10.192;2022-08-19T12:41:57;33.80;32.90
40534;DHT22;26233;51.894;10.192;2022-08-19T12:44:50;33.60;33.00
40534;DHT22;26233;51.894;10.192;2022-08-19T12:47:43;33.40;33.10
40534;DHT22;26233;51.894;10.192;2022-08-19T12:50:39;33.30;33.30
40534;DHT22;26233;51.894;10.192;2022-08-19T12:53:31;33.30;32.80
40534;DHT22;26233;51.894;10.192;2022-08-19T12:56:26;33.20;33.10
40534;DHT22;26233;51.894;10.192;2022-08-19T12:59:22;33.30;33.20
40534;DHT22;26233;51.894;10.192;2022-08-19T13:01:52;33.20;32.60
40534;DHT22;26233;51.894;10.192;2022-08-19T13:04:20;33.30;33.00
40534;DHT22;26233;51.894;10.192;2022-08-19T13:06:47;33.30;32.70
40534;DHT22;26233;51.894;10.192;2022-08-19T13:09:14;33.30;32.70
40534;DHT22;26233;51.894;10.192;2022-08-19T13:11:41;33.40;32.70
40534;DHT22;26233;51.894;10.192;2022-08-19T13:14:11;33.30;32.40
40534;DHT22;26233;51.894;10.192;2022-08-19T13:16:39;33.50;32.20
40534;DHT22;26233;51.894;10.192;2022-08-19T13:19:08;33.60;32.00
40534;DHT22;26233;51.894;10.192;2022-08-19T13:21:36;33.60;31.90
40534;DHT22;26233;51.894;10.192;2022-08-19T13:24:03;33.70;31.80
40534;DHT22;26233;51.894;10.192;2022-08-19T13:26:31;33.70;31.50
40534;DHT22;26233;51.894;10.192;2022-08-19T13:28:58;33.70;31.50
40534;DHT22;26233;51.894;10.192;2022-08-19T13:31:44;33.80;31.20
40534;DHT22;26233;51.894;10.192;2022-08-19T13:34:31;33.70;30.60
40534;DHT22;26233;51.894;10.192;2022-08-19T13:37:03;33.60;31.20
40534;DHT22;26233;51.894;10.192;2022-08-19T13:39:31;33.50;30.50
40534;DHT22;26233;51.894;10.192;2022-08-19T13:42:00;33.50;30.40
40534;DHT22;26233;51.894;10.192;2022-08-19T13:44:28;33.50;30.50
40534;DHT22;26233;51.894;10.192;2022-08-19T13:47:00;33.50;30.50
40534;DHT22;26233;51.894;10.192;2022-08-19T13:49:33;33.50;30.20
40534;DHT22;26233;51.894;10.192;2022-08-19T13:52:02;33.40;30.30
40534;DHT22;26233;51.894;10.192;2022-08-19T13:54:29;33.50;30.50
40534;DHT22;26233;51.894;10.192;2022-08-19T13:56:59;33.40;30.30
40534;DHT22;26233;51.894;10.192;2022-08-19T13:59:26;33.40;30.30
40534;DHT22;26233;51.894;10.192;2022-08-19T14:01:59;33.40;30.20
40534;DHT22;26233;51.894;10.192;2022-08-19T14:04:26;33.30;30.10
40534;DHT22;26233;51.894;10.192;2022-08-19T14:06:53;33.30;30.00
40534;DHT22;26233;51.894;10.192;2022-08-19T14:09:20;33.20;29.90
40534;DHT22;26233;51.894;10.192;2022-08-19T14:11:47;33.10;29.90
40534;DHT22;26233;51.894;10.192;2022-08-19T14:14:16;33.10;29.70
40534;DHT22;26233;51.894;10.192;2022-08-19T14:16:45;33.00;29.70
40534;DHT22;26233;51.894;10.192;2022-08-19T14:19:14;32.90;29.60
40534;DHT22;26233;51.894;10.192;2022-08-19T14:21:41;32.90;29.50
40534;DHT22;26233;51.894;10.192;2022-08-19T14:24:10;32.80;29.40
40534;DHT22;26233;51.894;10.192;2022-08-19T14:26:43;32.70;29.50
40534;DHT22;26233;51.894;10.192;2022-08-19T14:29:10;32.70;29.60
40534;DHT22;26233;51.894;10.192;2022-08-19T14:31:38;32.60;29.50
40534;DHT22;26233;51.894;10.192;2022-08-19T14:34:08;32.60;29.20
40534;DHT22;26233;51.894;10.192;2022-08-19T14:36:37;32.60;29.20
40534;DHT22;26233;51.894;10.192;2022-08-19T14:39:04;32.50;29.20
40534;DHT22;26233;51.894;10.192;2022-08-19T14:41:31;32.50;29.50
40534;DHT22;26233;51.894;10.192;2022-08-19T14:43:59;32.50;29.10
40534;DHT22;26233;51.894;10.192;2022-08-19T14:46:28;32.50;29.10
40534;DHT22;26233;51.894;10.192;2022-08-19T14:48:56;32.50;28.80
40534;DHT22;26233;51.894;10.192;2022-08-19T14:51:24;32.40;28.60
40534;DHT22;26233;51.894;10.192;2022-08-19T14:53:53;32.40;28.70
40534;DHT22;26233;51.894;10.192;2022-08-19T14:56:23;32.30;29.30
40534;DHT22;26233;51.894;10.192;2022-08-19T14:58:54;32.30;28.70
40534;DHT22;26233;51.894;10.192;2022-08-19T15:01:27;32.20;28.70
40534;DHT22;26233;51.894;10.192;2022-08-19T15:03:54;32.10;28.70
40534;DHT22;26233;51.894;10.192;2022-08-19T15:06:22;32.10;28.80
40534;DHT22;26233;51.894;10.192;2022-08-19T15:08:50;32.10;28.70
40534;DHT22;26233;51.894;10.192;2022-08-19T15:11:23;32.10;28.90
40534;DHT22;26233;51.894;10.192;2022-08-19T15:13:53;32.10;28.90
40534;DHT22;26233;51.894;10.192;2022-08-19T15:16:27;32.10;28.90
40534;DHT22;26233;51.894;10.192;2022-08-19T15:18:57;32.10;28.80
40534;DHT22;26233;51.894;10.192;2022-08-19T15:21:26;32.10;28.80
40534;DHT22;26233;51.894;10.192;2022-08-19T15:23:55;32.10;28.80
40534;DHT22;26233;51.894;10.192;2022-08-19T15:26:25;32.10;28.70
40534;DHT22;26233;51.894;10.192;2022-08-19T15:28:53;32.00;28.60
40534;DHT22;26233;51.894;10.192;2022-08-19T15:31:21;32.00;28.60
40534;DHT22;26233;51.894;10.192;2022-08-19T15:33:48;31.90;28.60
40534;DHT22;26233;51.894;10.192;2022-08-19T15:36:16;31.80;28.60
40534;DHT22;26233;51.894;10.192;2022-08-19T15:38:43;31.80;28.60